createdAt,value
2022-11-21T00:01:23.343Z,26.55
2022-11-21T00:03:51.677Z,23.92
2022-11-21T00:06:21.009Z,21.75
2022-11-21T00:08:48.927Z,22.20
2022-11-21T00:11:17.198Z,22.87
2022-11-21T00:13:45.401Z,20.40
2022-11-21T00:16:15.692Z,21.00
2022-11-21T00:18:44.686Z,24.72
2022-11-21T00:21:15.339Z,22.40
2022-11-21T00:23:44.490Z,21.60
2022-11-21T00:26:14.386Z,19.82
2022-11-21T00:28:42.575Z,19.45
2022-11-21T00:31:12.305Z,21.07
2022-11-21T00:33:40.667Z,22.45
2022-11-21T00:36:09.702Z,17.32
2022-11-21T00:38:37.514Z,21.82
2022-11-21T00:41:06.280Z,21.20
2022-11-21T00:43:35.311Z,23.12
2022-11-21T00:46:03.524Z,23.27
2022-11-21T00:48:33.347Z,31.35
2022-11-21T00:51:02.514Z,33.88
2022-11-21T00:53:31.241Z,33.53
2022-11-21T00:55:59.189Z,32.53
2022-11-21T00:58:27.526Z,32.48
2022-11-21T01:01:08.030Z,30.40
2022-11-21T01:03:36.438Z,33.15
2022-11-21T01:06:07.448Z,33.20
2022-11-21T01:08:37.120Z,32.15
2022-11-21T01:11:08.037Z,34.85
2022-11-21T01:13:36.796Z,30.75
2022-11-21T01:16:11.315Z,28.12
2022-11-21T01:18:39.808Z,29.25
2022-11-21T01:21:14.892Z,27.58
2022-11-21T01:26:17.301Z,30.60
2022-11-21T01:28:46.018Z,28.17
2022-11-21T01:31:17.636Z,27.58
2022-11-21T01:33:46.572Z,23.50
2022-11-21T01:36:21.090Z,26.68
2022-11-21T01:38:51.993Z,21.70
2022-11-21T01:41:23.707Z,24.72
2022-11-21T01:43:52.018Z,26.40
2022-11-21T01:46:22.854Z,22.95
2022-11-21T01:49:03.762Z,27.25
2022-11-21T01:51:35.701Z,27.45
2022-11-21T01:54:16.585Z,29.52
2022-11-21T01:56:51.165Z,24.45
2022-11-21T01:59:26.133Z,24.07
2022-11-21T02:01:55.019Z,22.20
2022-11-21T02:04:25.259Z,27.32
2022-11-21T02:06:53.215Z,25.30
2022-11-21T02:09:22.315Z,27.27
2022-11-21T02:11:56.347Z,26.80
2022-11-21T02:14:25.044Z,27.85
2022-11-21T02:16:56.624Z,26.07
2022-11-21T02:19:37.314Z,28.35
2022-11-21T02:22:20.698Z,30.00
2022-11-21T02:25:01.621Z,27.20
2022-11-21T02:27:33.224Z,32.93
2022-11-21T02:30:03.699Z,30.70
2022-11-21T02:32:37.725Z,29.82
2022-11-21T02:35:06.790Z,36.85
2022-11-21T02:37:37.726Z,26.40
2022-11-21T02:40:15.192Z,29.55
2022-11-21T02:42:51.421Z,28.25
2022-11-21T02:45:23.144Z,24.25
2022-11-21T02:47:58.042Z,28.00
2022-11-21T02:50:27.856Z,29.02
2022-11-21T02:52:56.512Z,29.87
2022-11-21T02:55:25.975Z,26.77
2022-11-21T02:57:54.702Z,31.68
2022-11-21T03:00:23.189Z,30.37
2022-11-21T03:02:51.874Z,30.82
2022-11-21T03:05:21.347Z,30.77
2022-11-21T03:07:49.555Z,32.83
2022-11-21T03:10:18.399Z,33.48
2022-11-21T03:12:46.007Z,32.78
2022-11-21T03:15:16.448Z,32.48
2022-11-21T03:17:46.729Z,32.53
2022-11-21T03:20:14.754Z,39.03
2022-11-21T03:22:42.463Z,35.90
2022-11-21T03:25:13.605Z,33.45
2022-11-21T03:27:41.346Z,35.25
2022-11-21T03:30:10.543Z,37.98
2022-11-21T03:32:38.433Z,38.48
2022-11-21T03:35:06.705Z,38.10
2022-11-21T03:37:54.292Z,37.10
2022-11-21T03:40:22.104Z,39.03
2022-11-21T03:42:50.468Z,37.80
2022-11-21T03:45:18.497Z,36.25
2022-11-21T03:47:46.622Z,36.33
2022-11-21T03:50:16.193Z,35.75
2022-11-21T03:52:44.235Z,41.13
2022-11-21T03:55:12.272Z,36.25
2022-11-21T03:57:43.417Z,35.13
2022-11-21T04:00:14.034Z,37.58
2022-11-21T04:02:42.136Z,40.15
2022-11-21T04:05:10.266Z,36.05
2022-11-21T04:07:41.473Z,35.92
2022-11-21T04:10:12.249Z,37.23
2022-11-21T04:12:39.873Z,38.20
2022-11-21T04:15:13.335Z,36.05
2022-11-21T04:17:38.993Z,36.83
2022-11-21T04:20:07.951Z,35.48
2022-11-21T04:22:36.715Z,30.52
2022-11-21T04:25:04.904Z,36.80
2022-11-21T04:27:32.747Z,35.65
2022-11-21T04:30:00.939Z,35.78
2022-11-21T04:32:28.936Z,34.95
2022-11-21T04:34:57.132Z,34.08
2022-11-21T04:37:25.523Z,36.53
2022-11-21T04:39:53.564Z,39.63
2022-11-21T04:42:21.969Z,37.23
2022-11-21T04:44:53.169Z,41.25
2022-11-21T04:47:21.353Z,40.80
2022-11-21T04:49:49.375Z,41.02
2022-11-21T04:52:18.635Z,40.38
2022-11-21T04:54:46.622Z,41.60
2022-11-21T04:57:15.412Z,41.02
2022-11-21T04:59:42.916Z,43.70
2022-11-21T05:02:11.843Z,43.85
2022-11-21T05:04:40.335Z,40.17
2022-11-21T05:07:08.284Z,43.48
2022-11-21T05:09:36.330Z,41.92
2022-11-21T05:12:22.833Z,39.73
2022-11-21T05:14:51.461Z,45.33
2022-11-21T05:17:19.233Z,42.75
2022-11-21T05:19:46.805Z,37.00
2022-11-21T05:22:15.036Z,39.27
2022-11-21T05:24:43.760Z,40.33
2022-11-21T05:27:11.641Z,45.83
2022-11-21T05:29:39.643Z,37.78
2022-11-21T05:32:07.636Z,43.20
2022-11-21T05:34:36.203Z,38.95
2022-11-21T05:37:04.614Z,33.88
2022-11-21T05:39:32.747Z,36.83
2022-11-21T05:42:03.169Z,37.42
2022-11-21T05:44:30.890Z,32.58
2022-11-21T05:46:58.922Z,38.63
2022-11-21T05:49:26.573Z,37.95
2022-11-21T05:51:54.742Z,37.38
2022-11-21T05:54:23.186Z,38.95
2022-11-21T05:56:51.001Z,47.45
2022-11-21T05:59:19.328Z,40.28
2022-11-21T06:02:06.805Z,36.73
2022-11-21T06:04:35.720Z,36.38
2022-11-21T06:07:03.640Z,40.90
2022-11-21T06:09:32.167Z,42.38
2022-11-21T06:12:03.190Z,43.95
2022-11-21T06:14:31.108Z,40.78
2022-11-21T06:16:59.723Z,39.18
2022-11-21T06:19:27.776Z,41.83
2022-11-21T06:21:55.386Z,40.98
2022-11-21T06:24:23.377Z,43.87
2022-11-21T06:26:52.118Z,40.30
2022-11-21T06:29:21.682Z,40.43
2022-11-21T06:31:50.897Z,48.10
2022-11-21T06:34:18.887Z,38.60
2022-11-21T06:36:46.656Z,41.13
2022-11-21T06:39:15.328Z,37.48
2022-11-21T06:41:43.041Z,39.08
2022-11-21T06:44:10.865Z,38.73
2022-11-21T06:46:39.405Z,40.90
2022-11-21T06:49:07.542Z,40.48
2022-11-21T06:51:35.476Z,38.00
2022-11-21T06:54:03.871Z,40.52
2022-11-21T06:56:32.301Z,39.55
2022-11-21T06:59:00.874Z,45.58
2022-11-21T07:01:29.185Z,42.43
2022-11-21T07:03:58.439Z,42.25
2022-11-21T07:06:29.538Z,42.55
2022-11-21T07:09:31.664Z,38.30
2022-11-21T07:11:29.712Z,41.92
2022-11-21T07:13:57.504Z,41.37
2022-11-21T07:16:26.651Z,36.88
2022-11-21T07:18:54.438Z,38.85
2022-11-21T07:21:22.447Z,37.78
2022-11-21T07:23:50.461Z,43.35
2022-11-21T07:26:18.531Z,42.93
2022-11-21T07:28:46.534Z,48.35
2022-11-21T07:31:14.557Z,49.27
2022-11-21T07:34:02.346Z,42.35
2022-11-21T07:36:32.623Z,43.25
2022-11-21T07:39:00.478Z,43.17
2022-11-21T07:41:29.034Z,43.48
2022-11-21T07:43:57.826Z,42.65
2022-11-21T07:46:26.188Z,43.50
2022-11-21T07:48:54.062Z,42.10
2022-11-21T07:51:22.186Z,43.02
2022-11-21T07:53:50.155Z,47.35
2022-11-21T07:56:18.596Z,45.15
2022-11-21T07:58:47.775Z,44.08
2022-11-21T08:01:15.924Z,49.45
2022-11-21T08:03:43.927Z,47.67
2022-11-21T08:06:13.198Z,44.83
2022-11-21T08:08:40.937Z,41.83
2022-11-21T08:11:08.881Z,47.67
2022-11-21T08:13:36.571Z,47.17
2022-11-21T08:16:05.530Z,52.38
2022-11-21T08:18:33.734Z,56.20
2022-11-21T08:21:05.186Z,44.20
2022-11-21T08:23:33.048Z,50.03
2022-11-21T08:26:01.414Z,47.65
2022-11-21T08:28:29.730Z,44.18
2022-11-21T08:30:57.389Z,41.15
2022-11-21T08:33:25.717Z,48.60
2022-11-21T08:35:54.837Z,46.48
2022-11-21T08:38:22.751Z,45.80
2022-11-21T08:40:55.423Z,43.42
2022-11-21T08:43:24.010Z,51.75
2022-11-21T08:45:55.438Z,46.00
2022-11-21T08:48:24.072Z,49.75
2022-11-21T08:50:53.063Z,48.42
2022-11-21T08:53:20.580Z,48.40
2022-11-21T08:55:48.650Z,49.48
2022-11-21T08:58:16.569Z,49.20
2022-11-21T09:00:46.508Z,48.13
2022-11-21T09:03:19.042Z,49.48
2022-11-21T09:05:44.929Z,45.52
2022-11-21T09:08:13.308Z,47.93
2022-11-21T09:10:41.388Z,50.63
2022-11-21T09:13:09.243Z,57.98
2022-11-21T09:15:55.328Z,55.67
2022-11-21T09:18:23.456Z,57.13
2022-11-21T09:20:51.310Z,53.13
2022-11-21T09:23:19.259Z,52.27
2022-11-21T09:25:49.065Z,52.48
2022-11-21T09:28:17.373Z,50.48
2022-11-21T09:30:45.057Z,53.63
2022-11-21T09:33:14.954Z,49.55
2022-11-21T09:35:42.314Z,61.23
2022-11-21T09:38:10.735Z,54.25
2022-11-21T09:40:42.150Z,49.00
2022-11-21T09:43:28.958Z,55.52
2022-11-21T09:46:06.805Z,56.20
2022-11-21T09:48:53.282Z,53.63
2022-11-21T09:51:22.892Z,54.77
2022-11-21T09:54:14.580Z,50.78
2022-11-21T09:56:43.595Z,53.15
2022-11-21T09:59:24.599Z,54.73
2022-11-21T10:01:52.673Z,54.05
2022-11-21T10:04:20.867Z,49.03
2022-11-21T10:07:05.349Z,59.15
2022-11-21T10:09:37.069Z,56.53
2022-11-21T10:12:26.940Z,49.95
2022-11-21T10:15:23.006Z,53.10
2022-11-21T10:17:54.642Z,50.50
2022-11-21T10:20:57.991Z,51.15
2022-11-21T10:23:44.558Z,59.20
2022-11-21T10:26:18.007Z,52.48
2022-11-21T10:28:49.667Z,53.33
2022-11-21T10:31:20.273Z,52.60
2022-11-21T10:33:50.585Z,50.65
2022-11-21T10:36:27.795Z,50.55
2022-11-21T10:39:05.232Z,55.65
2022-11-21T10:41:42.720Z,51.58
2022-11-21T10:44:33.642Z,59.33
2022-11-21T10:47:02.283Z,52.30
2022-11-21T10:49:34.123Z,54.00
2022-11-21T10:52:17.573Z,53.50
2022-11-21T10:55:07.463Z,47.05
2022-11-21T10:57:41.789Z,54.73
2022-11-21T11:00:16.699Z,50.87
2022-11-21T11:02:48.286Z,53.87
2022-11-21T11:05:26.305Z,50.50
2022-11-21T11:08:29.215Z,49.75
2022-11-21T11:11:06.668Z,55.25
2022-11-21T11:13:46.838Z,51.05
2022-11-21T11:16:15.949Z,54.40
2022-11-21T11:18:50.710Z,56.68
2022-11-21T11:21:26.178Z,51.75
2022-11-21T11:23:55.630Z,54.70
2022-11-21T11:26:27.213Z,53.75
2022-11-21T11:29:01.676Z,53.90
2022-11-21T11:31:33.170Z,51.48
2022-11-21T11:34:03.738Z,53.35
2022-11-21T11:36:44.778Z,53.52
2022-11-21T11:39:39.443Z,51.45
2022-11-21T11:42:29.262Z,55.23
2022-11-21T11:45:34.357Z,51.45
2022-11-21T11:48:13.023Z,51.77
2022-11-21T11:50:53.481Z,46.10
2022-11-21T11:53:31.334Z,55.17
2022-11-21T11:56:13.125Z,49.98
2022-11-21T11:59:19.290Z,51.10
2022-11-21T12:01:56.729Z,48.50
2022-11-21T12:04:26.348Z,54.15
2022-11-21T12:10:20.028Z,51.65
2022-11-21T12:13:09.070Z,50.80
2022-11-21T12:15:50.419Z,52.10
2022-11-21T12:18:35.271Z,49.05
2022-11-21T12:21:15.440Z,51.45
2022-11-21T12:23:54.425Z,55.05
2022-11-21T12:26:43.065Z,52.73
2022-11-21T12:29:30.039Z,52.03
2022-11-21T12:32:18.933Z,54.98
2022-11-21T12:35:05.180Z,53.30
2022-11-21T12:37:56.979Z,51.55
2022-11-21T12:40:50.629Z,52.15
2022-11-21T12:43:28.107Z,52.43
2022-11-21T12:46:12.239Z,48.05
2022-11-21T12:49:17.059Z,49.70
2022-11-21T12:52:19.688Z,49.13
2022-11-21T12:54:54.026Z,49.73
2022-11-21T12:57:24.583Z,49.88
2022-11-21T13:00:16.403Z,49.80
2022-11-21T13:03:04.861Z,52.45
2022-11-21T13:05:42.173Z,52.17
2022-11-21T13:08:19.974Z,51.40
2022-11-21T13:10:52.790Z,56.95
2022-11-21T13:13:33.424Z,54.65
2022-11-21T13:18:52.560Z,55.08
2022-11-21T13:21:47.843Z,50.28
2022-11-21T13:24:49.755Z,50.50
2022-11-21T13:27:42.640Z,56.23
2022-11-21T13:30:16.923Z,53.78
2022-11-21T13:32:56.055Z,54.80
2022-11-21T13:35:27.748Z,60.70
2022-11-21T13:38:03.157Z,56.18
2022-11-21T13:40:37.585Z,59.23
2022-11-21T13:43:32.494Z,55.63
2022-11-21T13:45:49.824Z,55.88
2022-11-21T13:48:36.809Z,55.28
2022-11-21T13:51:28.287Z,59.83
2022-11-21T13:54:14.086Z,59.40
2022-11-21T13:57:05.912Z,59.13
2022-11-21T14:00:14.443Z,58.23
2022-11-21T14:03:08.097Z,56.28
2022-11-21T14:05:40.221Z,61.10
2022-11-21T14:08:23.139Z,63.38
2022-11-21T14:10:53.156Z,63.98
2022-11-21T14:13:36.713Z,62.85
2022-11-21T14:16:17.997Z,63.48
2022-11-21T14:18:48.359Z,60.58
2022-11-21T14:21:27.416Z,64.77
2022-11-21T14:23:58.636Z,59.40
2022-11-21T14:26:29.066Z,65.70
2022-11-21T14:29:02.988Z,61.45
2022-11-21T14:31:34.538Z,62.83
2022-11-21T14:34:02.672Z,61.73
2022-11-21T14:36:31.322Z,66.10
2022-11-21T14:39:29.387Z,61.80
2022-11-21T14:41:33.247Z,63.05
2022-11-21T14:44:04.262Z,65.67
2022-11-21T14:46:37.735Z,62.45
2022-11-21T14:49:21.067Z,66.15
2022-11-21T14:52:04.733Z,68.25
2022-11-21T14:55:06.487Z,65.37
2022-11-21T14:57:24.824Z,72.67
2022-11-21T14:59:54.433Z,66.53
2022-11-21T15:02:24.941Z,63.25
2022-11-21T15:04:55.829Z,71.10
2022-11-21T15:07:31.502Z,69.53
2022-11-21T15:12:31.346Z,73.28
2022-11-21T15:15:03.342Z,69.82
2022-11-21T15:17:31.848Z,75.55
2022-11-21T15:20:11.271Z,72.42
2022-11-21T15:22:39.467Z,75.67
2022-11-21T15:25:19.235Z,79.75
2022-11-21T15:27:49.852Z,73.15
2022-11-21T15:30:24.749Z,74.60
2022-11-21T15:33:17.065Z,77.55
2022-11-21T15:35:56.205Z,75.08
2022-11-21T15:38:34.148Z,71.10
2022-11-21T15:41:08.952Z,68.55
2022-11-21T15:46:22.560Z,76.50
2022-11-21T15:48:59.064Z,72.25
2022-11-21T15:52:05.597Z,77.72
2022-11-21T15:54:06.518Z,85.35
2022-11-21T15:56:34.846Z,78.57
2022-11-21T15:59:02.994Z,80.67
2022-11-21T16:01:31.805Z,82.30
2022-11-21T16:04:01.834Z,83.62
2022-11-21T16:06:31.013Z,76.00
2022-11-21T16:09:02.180Z,74.67
2022-11-21T16:11:41.275Z,81.55
2022-11-21T16:14:14.935Z,88.52
2022-11-21T16:16:43.968Z,69.77
2022-11-21T16:19:13.735Z,70.72
2022-11-21T16:21:41.707Z,76.95
2022-11-21T16:24:11.881Z,69.35
2022-11-21T16:26:43.824Z,73.62
2022-11-21T16:29:12.927Z,70.50
2022-11-21T16:31:41.123Z,77.60
2022-11-21T16:34:09.294Z,76.17
2022-11-21T16:36:38.717Z,69.50
2022-11-21T16:39:11.160Z,74.40
2022-11-21T16:41:36.938Z,73.07
2022-11-21T16:44:05.241Z,79.37
2022-11-21T16:46:33.419Z,78.37
2022-11-21T16:49:03.148Z,73.90
2022-11-21T16:51:31.271Z,72.53
2022-11-21T16:54:04.212Z,67.20
2022-11-21T16:56:28.935Z,74.32
2022-11-21T16:58:57.389Z,79.22
2022-11-21T17:01:27.428Z,68.78
2022-11-21T17:03:55.226Z,72.78
2022-11-21T17:06:27.541Z,71.28
2022-11-21T17:09:18.544Z,72.40
2022-11-21T17:11:46.671Z,82.35
2022-11-21T17:14:17.177Z,73.50
2022-11-21T17:16:45.936Z,70.05
2022-11-21T17:19:17.091Z,83.20
2022-11-21T17:21:45.574Z,86.20
2022-11-21T17:24:14.859Z,90.17
2022-11-21T17:26:42.742Z,85.62
2022-11-21T17:29:10.895Z,85.77
2022-11-21T17:31:38.350Z,88.30
2022-11-21T17:34:06.288Z,156.52
2022-11-21T17:36:35.460Z,85.83
2022-11-21T17:39:04.108Z,76.82
2022-11-21T17:41:31.912Z,75.37
2022-11-21T17:44:04.398Z,76.10
2022-11-21T17:46:32.904Z,74.07
2022-11-21T17:49:00.848Z,65.20
2022-11-21T17:51:33.635Z,72.03
2022-11-21T17:54:02.712Z,73.55
2022-11-21T17:56:37.025Z,74.72
2022-11-21T18:01:34.948Z,68.72
2022-11-21T18:04:08.951Z,62.73
2022-11-21T18:06:39.773Z,64.50
2022-11-21T18:09:08.668Z,63.33
2022-11-21T18:11:40.238Z,67.80
2022-11-21T18:14:09.058Z,61.95
2022-11-21T18:16:39.719Z,70.83
2022-11-21T18:19:10.007Z,68.95
2022-11-21T18:21:37.910Z,58.83
2022-11-21T18:24:06.471Z,57.00
2022-11-21T18:26:37.244Z,56.88
2022-11-21T18:29:35.138Z,55.52
2022-11-21T18:31:42.997Z,48.98
2022-11-21T18:34:12.936Z,42.43
2022-11-21T18:36:40.372Z,37.80
2022-11-21T18:39:14.857Z,35.95
2022-11-21T18:41:38.846Z,33.05
2022-11-21T18:44:07.445Z,32.00
2022-11-21T18:46:41.516Z,33.45
2022-11-21T18:49:09.235Z,35.92
2022-11-21T18:51:37.319Z,31.70
2022-11-21T18:54:14.129Z,30.85
2022-11-21T18:56:42.162Z,29.50
2022-11-21T18:59:09.669Z,28.45
2022-11-21T19:01:40.120Z,24.80
2022-11-21T19:04:07.898Z,26.55
2022-11-21T19:06:39.091Z,27.65
2022-11-21T19:09:08.484Z,25.40
2022-11-21T19:11:38.683Z,24.85
2022-11-21T19:14:06.791Z,25.43
2022-11-21T19:16:35.587Z,23.67
2022-11-21T19:21:39.248Z,32.63
2022-11-21T19:24:07.987Z,27.25
2022-11-21T19:26:36.298Z,30.08
2022-11-21T19:29:04.814Z,25.25
2022-11-21T19:31:32.806Z,26.23
2022-11-21T19:34:00.697Z,31.48
2022-11-21T19:36:28.388Z,28.25
2022-11-21T19:38:57.278Z,27.93
2022-11-21T19:41:28.365Z,28.50
2022-11-21T19:43:58.720Z,29.63
2022-11-21T19:46:31.230Z,28.92
2022-11-21T19:49:00.700Z,28.67
2022-11-21T19:51:31.923Z,29.18
2022-11-21T19:54:02.581Z,33.00
2022-11-21T19:56:31.508Z,26.77
2022-11-21T19:58:59.586Z,29.87
2022-11-21T20:01:29.893Z,31.25
2022-11-21T20:04:00.147Z,33.30
2022-11-21T20:06:31.227Z,29.98
2022-11-21T20:09:13.021Z,31.87
2022-11-21T20:11:43.124Z,28.65
2022-11-21T20:14:21.084Z,32.40
2022-11-21T20:16:49.434Z,29.72
2022-11-21T20:19:18.881Z,31.42
2022-11-21T20:21:47.461Z,28.57
2022-11-21T20:24:15.377Z,30.20
2022-11-21T20:26:46.926Z,31.80
2022-11-21T20:29:16.286Z,29.42
2022-11-21T20:31:44.996Z,30.08
2022-11-21T20:34:13.854Z,28.98
2022-11-21T20:36:59.030Z,29.60
2022-11-21T20:39:32.478Z,27.40
2022-11-21T20:42:00.444Z,28.17
2022-11-21T20:46:58.229Z,25.77
2022-11-21T20:49:26.572Z,27.10
2022-11-21T20:53:43.934Z,29.67
2022-11-21T20:54:25.041Z,26.68
2022-11-21T20:56:52.895Z,30.12
2022-11-21T20:59:21.314Z,26.25
2022-11-21T21:01:50.134Z,22.07
2022-11-21T21:04:18.408Z,22.85
2022-11-21T21:06:48.469Z,24.10
2022-11-21T21:09:19.196Z,23.52
2022-11-21T21:11:52.587Z,28.12
2022-11-21T21:14:17.268Z,23.30
2022-11-21T21:16:46.231Z,25.10
2022-11-21T21:19:14.060Z,28.45
2022-11-21T21:21:42.446Z,23.05
2022-11-21T21:24:12.082Z,21.57
2022-11-21T21:26:43.658Z,22.93
2022-11-21T21:29:14.664Z,24.20
2022-11-21T21:31:49.902Z,21.68
2022-11-21T21:34:14.519Z,24.05
2022-11-21T21:36:42.195Z,20.97
2022-11-21T21:39:10.083Z,20.82
2022-11-21T21:41:40.313Z,19.87
2022-11-21T21:44:07.917Z,24.98
2022-11-21T21:46:36.027Z,21.42
2022-11-21T21:49:04.926Z,21.05
2022-11-21T21:51:32.920Z,18.85
2022-11-21T21:54:00.948Z,19.02
2022-11-21T21:56:29.652Z,19.17
2022-11-21T21:59:02.551Z,19.92
2022-11-21T22:01:32.642Z,17.82
2022-11-21T22:04:05.398Z,17.00
2022-11-21T22:06:34.795Z,16.80
2022-11-21T22:09:03.788Z,18.30
2022-11-21T22:11:33.534Z,15.90
2022-11-21T22:14:05.110Z,16.32
2022-11-21T22:16:36.105Z,16.82
2022-11-21T22:19:04.341Z,15.63
2022-11-21T22:21:34.330Z,15.88
2022-11-21T22:24:29.993Z,18.77
2022-11-21T22:26:45.860Z,16.35
2022-11-21T22:29:13.514Z,15.35
2022-11-21T22:31:41.033Z,15.55
2022-11-21T22:34:12.976Z,14.95
2022-11-21T22:36:42.065Z,16.15
2022-11-21T22:39:11.267Z,14.87
2022-11-21T22:41:39.712Z,15.75
2022-11-21T22:44:07.634Z,15.58
2022-11-21T22:46:35.697Z,16.73
2022-11-21T22:49:04.140Z,16.20
2022-11-21T22:51:32.298Z,17.35
2022-11-21T22:54:00.732Z,15.00
2022-11-21T22:56:28.584Z,15.75
2022-11-21T22:58:56.547Z,15.15
2022-11-21T23:01:28.919Z,14.50
2022-11-21T23:03:56.716Z,15.60
2022-11-21T23:06:26.709Z,14.93
2022-11-21T23:08:56.330Z,13.58
2022-11-21T23:11:30.077Z,14.85
2022-11-21T23:14:00.057Z,13.65
2022-11-21T23:16:28.926Z,14.28
2022-11-21T23:18:57.021Z,13.65
2022-11-21T23:21:25.146Z,14.23
2022-11-21T23:23:52.968Z,14.05
2022-11-21T23:26:24.897Z,13.70
2022-11-21T23:28:53.818Z,14.10
2022-11-21T23:31:21.761Z,13.78
2022-11-21T23:33:49.339Z,12.78
2022-11-21T23:36:17.715Z,15.13
2022-11-21T23:38:45.707Z,10.80
2022-11-21T23:41:13.703Z,12.58
2022-11-21T23:43:41.670Z,12.40
2022-11-21T23:46:10.061Z,11.48
2022-11-21T23:48:37.800Z,10.88
2022-11-21T23:51:05.832Z,11.48
2022-11-21T23:53:33.594Z,9.80
2022-11-21T23:56:05.007Z,8.05
2022-11-21T23:58:34.837Z,10.03
